Time,TemperatureF,DewpointF,PressureIn,WindDirection,WindDirectionDegrees,WindSpeedMPH,WindSpeedGustMPH,Humidity,HourlyPrecipIn,Conditions,Clouds,dailyrainin,SolarRadiationWatts/m^2,SoftwareType,DateUTC
2013-03-09 00:01:00,32.5,28.0,30.40,NE,49,1.0,2.0,83,0.00,,,0.00,0,weatherlink.com 1.10,2013-03-09 05:01:00,
2013-03-09 00:16:00,32.4,28.0,30.40,NE,49,1.0,1.0,83,0.00,,,0.00,0,weatherlink.com 1.10,2013-03-09 05:16:00,
2013-03-09 00:31:00,32.3,28.0,30.40,NE,49,0.0,1.0,83,0.00,,,0.00,0,weatherlink.com 1.10,2013-03-09 05:31:00,
2013-03-09 00:46:00,32.0,28.0,30.39,NE,49,1.0,1.0,84,0.00,,,0.00,0,weatherlink.com 1.10,2013-03-09 05:46:00,
2013-03-09 01:01:00,31.9,28.0,30.39,NE,49,0.0,2.0,84,0.00,,,0.00,0,weatherlink.com 1.10,2013-03-09 06:01:00,
2013-03-09 01:16:00,32.0,28.0,30.38,NE,49,1.0,2.0,84,0.00,,,0.00,0,weatherlink.com 1.10,2013-03-09 06:16:00,
2013-03-09 01:31:00,31.9,28.0,30.38,ENE,63,1.0,3.0,85,0.00,,,0.00,0,weatherlink.com 1.10,2013-03-09 06:31:00,
2013-03-09 01:46:00,32.3,28.0,30.38,East,81,1.0,3.0,85,0.00,,,0.00,0,weatherlink.com 1.10,2013-03-09 06:46:00,
2013-03-09 02:01:00,32.8,29.0,30.38,ENE,60,2.0,4.0,84,0.00,,,0.00,0,weatherlink.com 1.10,2013-03-09 07:01:00,
2013-03-09 02:16:00,33.0,29.0,30.38,ENE,65,3.0,6.0,84,0.00,,,0.00,0,weatherlink.com 1.10,2013-03-09 07:16:00,
2013-03-09 02:31:00,33.0,29.0,30.36,East,88,2.0,6.0,84,0.00,,,0.00,0,weatherlink.com 1.10,2013-03-09 07:31:00,
2013-03-09 02:46:00,32.9,29.0,30.36,ENE,72,3.0,7.0,84,0.00,,,0.00,0,weatherlink.com 1.10,2013-03-09 07:46:00,
2013-03-09 03:01:00,33.0,29.0,30.35,East,82,2.0,8.0,84,0.00,,,0.00,0,weatherlink.com 1.10,2013-03-09 08:01:00,
2013-03-09 03:16:00,33.0,29.0,30.34,NE,38,2.0,7.0,84,0.00,,,0.00,0,weatherlink.com 1.10,2013-03-09 08:16:00,
2013-03-09 03:31:00,33.0,28.0,30.34,ENE,74,2.0,7.0,83,0.00,,,0.00,0,weatherlink.com 1.10,2013-03-09 08:31:00,
2013-03-09 03:46:00,32.9,28.0,30.33,East,81,2.0,7.0,83,0.00,,,0.00,0,weatherlink.com 1.10,2013-03-09 08:46:00,
2013-03-09 04:01:00,32.9,28.0,30.33,East,90,1.0,6.0,83,0.00,,,0.00,0,weatherlink.com 1.10,2013-03-09 09:01:00,
2013-03-09 04:16:00,32.7,28.0,30.33,ENE,68,0.0,3.0,83,0.00,,,0.00,0,weatherlink.com 1.10,2013-03-09 09:16:00,
2013-03-09 04:31:00,32.4,28.0,30.34,East,96,2.0,3.0,83,0.00,,,0.00,0,weatherlink.com 1.10,2013-03-09 09:31:00,
2013-03-09 04:46:00,32.3,28.0,30.34,ENE,75,1.0,2.0,84,0.00,,,0.00,0,weatherlink.com 1.10,2013-03-09 09:46:00,
2013-03-09 05:01:00,32.3,28.0,30.34,ENE,60,2.0,3.0,84,0.00,,,0.00,0,weatherlink.com 1.10,2013-03-09 10:01:00,
2013-03-09 05:16:00,32.1,28.0,30.34,NE,53,1.0,3.0,83,0.00,,,0.00,0,weatherlink.com 1.10,2013-03-09 10:16:00,
2013-03-09 05:31:00,32.0,28.0,30.35,ENE,61,1.0,4.0,84,0.00,,,0.00,0,weatherlink.com 1.10,2013-03-09 10:31:00,
2013-03-09 05:46:00,31.7,27.0,30.35,ENE,69,1.0,3.0,84,0.00,,,0.00,0,weatherlink.com 1.10,2013-03-09 10:46:00,
2013-03-09 06:01:00,31.6,28.0,30.35,East,87,2.0,3.0,85,0.00,,,0.00,0,weatherlink.com 1.10,2013-03-09 11:01:00,
2013-03-09 06:16:00,31.3,27.0,30.35,East,98,1.0,4.0,85,0.00,,,0.00,0,weatherlink.com 1.10,2013-03-09 11:16:00,
2013-03-09 06:31:00,30.9,27.0,30.34,ENE,78,1.0,3.0,85,0.00,,,0.00,0,weatherlink.com 1.10,2013-03-09 11:31:00,
2013-03-09 06:46:00,30.9,27.0,30.35,ESE,115,2.0,5.0,86,0.00,,,0.00,0,weatherlink.com 1.10,2013-03-09 11:46:00,
2013-03-09 07:01:00,31.2,27.0,30.34,East,99,2.0,7.0,85,0.00,,,0.00,9,weatherlink.com 1.10,2013-03-09 12:01:00,
2013-03-09 07:16:00,31.6,28.0,30.33,East,98,3.0,8.0,85,0.00,,,0.00,23,weatherlink.com 1.10,2013-03-09 12:16:00,
2013-03-09 07:31:00,32.2,28.0,30.33,East,101,3.0,6.0,84,0.00,,,0.00,53,weatherlink.com 1.10,2013-03-09 12:31:00,
2013-03-09 07:46:00,33.0,28.0,30.32,ENE,57,4.0,9.0,83,0.00,,,0.00,105,weatherlink.com 1.10,2013-03-09 12:46:00,
2013-03-09 08:01:00,34.0,29.0,30.32,East,97,3.0,10.0,82,0.00,,,0.00,162,weatherlink.com 1.10,2013-03-09 13:01:00,
2013-03-09 08:17:00,35.0,29.0,30.32,East,101,6.0,9.0,80,0.00,,,0.00,229,weatherlink.com 1.10,2013-03-09 13:17:00,
2013-03-09 08:32:00,36.0,30.0,30.32,East,98,7.0,9.0,78,0.00,,,0.00,288,weatherlink.com 1.10,2013-03-09 13:32:00,
2013-03-09 08:47:00,36.8,30.0,30.33,ESE,103,3.0,8.0,77,0.00,,,0.00,345,weatherlink.com 1.10,2013-03-09 13:47:00,
2013-03-09 09:02:00,38.1,31.0,30.33,East,101,6.0,8.0,76,0.00,,,0.00,369,weatherlink.com 1.10,2013-03-09 14:02:00,
2013-03-09 09:17:00,38.7,31.0,30.32,ESE,105,5.0,9.0,74,0.00,,,0.00,348,weatherlink.com 1.10,2013-03-09 14:17:00,
2013-03-09 09:32:00,38.6,31.0,30.32,ESE,115,13.0,15.0,73,0.00,,,0.00,155,weatherlink.com 1.10,2013-03-09 14:32:00,
2013-03-09 09:47:00,39.3,32.0,30.31,East,92,8.0,11.0,74,0.00,,,0.00,329,weatherlink.com 1.10,2013-03-09 14:47:00,
2013-03-09 10:02:00,40.6,33.0,30.32,ESE,111,4.0,9.0,73,0.00,,,0.00,559,weatherlink.com 1.10,2013-03-09 15:02:00,
2013-03-09 10:17:00,42.0,33.0,30.31,ESE,123,8.0,15.0,71,0.00,,,0.00,388,weatherlink.com 1.10,2013-03-09 15:17:00,
2013-03-09 10:32:00,42.1,33.0,30.31,SE,134,4.0,10.0,70,0.00,,,0.00,290,weatherlink.com 1.10,2013-03-09 15:32:00,
2013-03-09 10:47:00,42.0,33.0,30.31,ESE,110,4.0,8.0,70,0.00,,,0.00,267,weatherlink.com 1.10,2013-03-09 15:47:00,
2013-03-09 11:02:00,43.1,35.0,30.30,ESE,111,7.0,10.0,72,0.00,,,0.00,570,weatherlink.com 1.10,2013-03-09 16:02:00,
2013-03-09 11:17:00,43.6,34.0,30.31,ESE,103,4.0,9.0,69,0.00,,,0.00,325,weatherlink.com 1.10,2013-03-09 16:17:00,
2013-03-09 11:32:00,44.3,35.0,30.31,SE,146,4.0,8.0,69,0.00,,,0.00,394,weatherlink.com 1.10,2013-03-09 16:32:00,
2013-03-09 11:47:00,44.7,35.0,30.30,SE,137,3.0,8.0,69,0.00,,,0.00,359,weatherlink.com 1.10,2013-03-09 16:47:00,
2013-03-09 12:02:00,45.4,35.0,30.29,East,96,8.0,10.0,67,0.00,,,0.00,496,weatherlink.com 1.10,2013-03-09 17:02:00,
2013-03-09 12:17:00,46.5,36.0,30.28,East,100,6.0,10.0,67,0.00,,,0.00,689,weatherlink.com 1.10,2013-03-09 17:17:00,
2013-03-09 12:32:00,47.6,35.0,30.27,ESE,107,9.0,10.0,63,0.00,,,0.00,784,weatherlink.com 1.10,2013-03-09 17:32:00,
2013-03-09 12:47:00,48.5,37.0,30.26,ESE,110,5.0,13.0,65,0.00,,,0.00,742,weatherlink.com 1.10,2013-03-09 17:47:00,
2013-03-09 13:02:00,49.4,38.0,30.26,ENE,75,3.0,10.0,65,0.00,,,0.00,747,weatherlink.com 1.10,2013-03-09 18:02:00,
2013-03-09 13:18:00,50.5,39.0,30.24,East,79,6.0,10.0,66,0.00,,,0.00,747,weatherlink.com 1.10,2013-03-09 18:18:00,
2013-03-09 13:33:00,51.4,38.0,30.24,East,91,7.0,9.0,60,0.00,,,0.00,657,weatherlink.com 1.10,2013-03-09 18:33:00,
2013-03-09 13:48:00,52.9,39.0,30.23,SE,130,6.0,9.0,59,0.00,,,0.00,619,weatherlink.com 1.10,2013-03-09 18:48:00,
2013-03-09 14:03:00,53.0,37.0,30.22,SE,136,6.0,11.0,56,0.00,,,0.00,621,weatherlink.com 1.10,2013-03-09 19:03:00,
2013-03-09 14:18:00,54.1,38.0,30.21,East,99,7.0,13.0,54,0.00,,,0.00,229,weatherlink.com 1.10,2013-03-09 19:18:00,
2013-03-09 14:33:00,54.4,37.0,30.21,SE,124,4.0,10.0,53,0.00,,,0.00,294,weatherlink.com 1.10,2013-03-09 19:33:00,
2013-03-09 14:48:00,54.8,37.0,30.18,East,98,10.0,13.0,52,0.00,,,0.00,606,weatherlink.com 1.10,2013-03-09 19:48:00,
2013-03-09 15:03:00,55.2,37.0,30.18,ESE,103,7.0,11.0,51,0.00,,,0.00,439,weatherlink.com 1.10,2013-03-09 20:03:00,
2013-03-09 15:18:00,55.5,37.0,30.17,SSE,148,4.0,10.0,51,0.00,,,0.00,464,weatherlink.com 1.10,2013-03-09 20:18:00,
2013-03-09 15:33:00,56.6,38.0,30.16,SSE,150,4.0,9.0,50,0.00,,,0.00,492,weatherlink.com 1.10,2013-03-09 20:33:00,
2013-03-09 15:48:00,56.8,37.0,30.16,SE,142,5.0,9.0,48,0.00,,,0.00,297,weatherlink.com 1.10,2013-03-09 20:48:00,
2013-03-09 16:03:00,56.7,36.0,30.16,SE,130,5.0,10.0,47,0.00,,,0.00,229,weatherlink.com 1.10,2013-03-09 21:03:00,
2013-03-09 16:18:00,55.9,37.0,30.15,SSE,157,2.0,9.0,49,0.00,,,0.00,156,weatherlink.com 1.10,2013-03-09 21:18:00,
2013-03-09 16:33:00,55.8,36.0,30.15,SE,144,3.0,7.0,48,0.00,,,0.00,162,weatherlink.com 1.10,2013-03-09 21:33:00,
2013-03-09 16:48:00,56.4,37.0,30.14,SE,137,5.0,8.0,48,0.00,,,0.00,193,weatherlink.com 1.10,2013-03-09 21:48:00,
2013-03-09 17:03:00,56.8,35.0,30.14,ESE,117,7.0,9.0,45,0.00,,,0.00,199,weatherlink.com 1.10,2013-03-09 22:03:00,
2013-03-09 17:18:00,57.2,35.0,30.14,SSE,157,4.0,8.0,44,0.00,,,0.00,174,weatherlink.com 1.10,2013-03-09 22:18:00,
2013-03-09 17:33:00,57.0,35.0,30.13,SE,138,5.0,7.0,44,0.00,,,0.00,120,weatherlink.com 1.10,2013-03-09 22:33:00,
2013-03-09 17:48:00,56.1,35.0,30.13,SSE,165,2.0,7.0,45,0.00,,,0.00,56,weatherlink.com 1.10,2013-03-09 22:48:00,
2013-03-09 18:03:00,55.6,35.0,30.13,SE,146,0.0,5.0,47,0.00,,,0.00,30,weatherlink.com 1.10,2013-03-09 23:03:00,
2013-03-09 18:18:00,55.2,36.0,30.13,SE,135,2.0,5.0,48,0.00,,,0.00,14,weatherlink.com 1.10,2013-03-09 23:18:00,
2013-03-09 18:33:00,55.1,36.0,30.12,ESE,113,0.0,3.0,48,0.00,,,0.00,0,weatherlink.com 1.10,2013-03-09 23:33:00,
2013-03-09 18:48:00,54.8,35.0,30.12,SE,130,0.0,1.0,48,0.00,,,0.00,0,weatherlink.com 1.10,2013-03-09 23:48:00,
2013-03-09 19:03:00,54.4,35.0,30.12,SE,140,0.0,3.0,48,0.00,,,0.00,0,weatherlink.com 1.10,2013-03-10 00:03:00,
2013-03-09 19:18:00,54.4,34.0,30.12,SE,140,0.0,1.0,47,0.00,,,0.00,0,weatherlink.com 1.10,2013-03-10 00:18:00,
2013-03-09 19:33:00,54.2,35.0,30.13,SE,140,0.0,0.0,48,0.00,,,0.00,0,weatherlink.com 1.10,2013-03-10 00:33:00,
2013-03-09 19:48:00,53.0,36.0,30.12,ESE,116,0.0,3.0,53,0.00,,,0.00,0,weatherlink.com 1.10,2013-03-10 00:48:00,
2013-03-09 20:18:00,52.6,34.0,30.11,ESE,116,0.0,1.0,50,0.00,,,0.00,0,weatherlink.com 1.10,2013-03-10 01:18:00,
2013-03-09 20:33:00,52.5,35.0,30.11,ESE,116,0.0,1.0,51,0.00,,,0.00,0,weatherlink.com 1.10,2013-03-10 01:33:00,
2013-03-09 20:48:00,52.4,35.0,30.11,ESE,116,0.0,2.0,51,0.00,,,0.00,0,weatherlink.com 1.10,2013-03-10 01:48:00,
2013-03-09 21:03:00,52.4,35.0,30.11,ESE,116,0.0,1.0,51,0.00,,,0.00,0,weatherlink.com 1.10,2013-03-10 02:03:00,
2013-03-09 21:18:00,52.3,34.0,30.11,ESE,116,0.0,0.0,51,0.00,,,0.00,0,weatherlink.com 1.10,2013-03-10 02:18:00,
2013-03-09 21:34:00,52.2,34.0,30.11,ESE,116,1.0,1.0,51,0.00,,,0.00,0,weatherlink.com 1.10,2013-03-10 02:34:00,
2013-03-09 21:48:00,52.0,34.0,30.11,ESE,116,0.0,1.0,50,0.00,,,0.00,0,weatherlink.com 1.10,2013-03-10 02:48:00,
2013-03-09 22:04:00,51.3,36.0,30.10,ESE,116,1.0,3.0,56,0.00,,,0.00,0,weatherlink.com 1.10,2013-03-10 03:04:00,
2013-03-09 22:19:00,51.2,34.0,30.10,ESE,116,1.0,2.0,52,0.00,,,0.00,0,weatherlink.com 1.10,2013-03-10 03:19:00,
2013-03-09 22:34:00,51.7,34.0,30.09,ESE,116,0.0,1.0,51,0.00,,,0.00,0,weatherlink.com 1.10,2013-03-10 03:34:00,
2013-03-09 22:49:00,51.6,34.0,30.08,ESE,119,1.0,4.0,52,0.00,,,0.00,0,weatherlink.com 1.10,2013-03-10 03:49:00,
2013-03-09 23:04:00,50.8,34.0,30.07,ESE,115,1.0,3.0,53,0.00,,,0.00,0,weatherlink.com 1.10,2013-03-10 04:04:00,
2013-03-09 23:19:00,51.2,34.0,30.07,ESE,112,2.0,3.0,52,0.00,,,0.00,0,weatherlink.com 1.10,2013-03-10 04:19:00,
2013-03-09 23:34:00,51.3,34.0,30.06,SE,128,3.0,4.0,51,0.00,,,0.00,0,weatherlink.com 1.10,2013-03-10 04:34:00,
2013-03-09 23:49:00,51.5,33.0,30.06,SE,144,1.0,3.0,50,0.00,,,0.00,0,weatherlink.com 1.10,2013-03-10 04:49:00,